sensor_id;sensor_type;location;lat;lon;timestamp;P1;durP1;ratioP1;P2;durP2;ratioP2
56637;SDS011;42507;51.982;20.140;2022-11-20T00:01:11;60.67;;;27.37;;
56637;SDS011;42507;51.982;20.140;2022-11-20T00:03:51;56.50;;;28.52;;
56637;SDS011;42507;51.982;20.140;2022-11-20T00:06:19;57.23;;;27.15;;
56637;SDS011;42507;51.982;20.140;2022-11-20T00:08:46;53.60;;;26.02;;
56637;SDS011;42507;51.982;20.140;2022-11-20T00:11:14;57.33;;;27.52;;
56637;SDS011;42507;51.982;20.140;2022-11-20T00:13:51;56.77;;;27.60;;
56637;SDS011;42507;51.982;20.140;2022-11-20T00:16:16;58.23;;;28.50;;
56637;SDS011;42507;51.982;20.140;2022-11-20T00:18:45;60.55;;;29.40;;
56637;SDS011;42507;51.982;20.140;2022-11-20T00:21:13;57.53;;;28.23;;
56637;SDS011;42507;51.982;20.140;2022-11-20T00:23:44;54.67;;;23.20;;
56637;SDS011;42507;51.982;20.140;2022-11-20T00:26:12;53.65;;;27.82;;
56637;SDS011;42507;51.982;20.140;2022-11-20T00:28:41;63.92;;;28.77;;
56637;SDS011;42507;51.982;20.140;2022-11-20T00:31:09;61.18;;;29.30;;
56637;SDS011;42507;51.982;20.140;2022-11-20T00:33:38;66.45;;;29.37;;
56637;SDS011;42507;51.982;20.140;2022-11-20T00:36:06;65.70;;;30.82;;
56637;SDS011;42507;51.982;20.140;2022-11-20T00:38:36;61.25;;;29.32;;
56637;SDS011;42507;51.982;20.140;2022-11-20T00:41:04;56.50;;;28.50;;
56637;SDS011;42507;51.982;20.140;2022-11-20T00:43:34;57.00;;;26.57;;
56637;SDS011;42507;51.982;20.140;2022-11-20T00:46:08;59.83;;;28.75;;
56637;SDS011;42507;51.982;20.140;2022-11-20T00:48:43;54.67;;;27.05;;
56637;SDS011;42507;51.982;20.140;2022-11-20T00:51:11;60.08;;;28.20;;
56637;SDS011;42507;51.982;20.140;2022-11-20T00:53:39;60.40;;;25.70;;
56637;SDS011;42507;51.982;20.140;2022-11-20T00:56:06;61.77;;;27.95;;
56637;SDS011;42507;51.982;20.140;2022-11-20T00:58:38;59.10;;;27.70;;
56637;SDS011;42507;51.982;20.140;2022-11-20T01:01:08;59.75;;;29.35;;
56637;SDS011;42507;51.982;20.140;2022-11-20T01:03:40;60.55;;;26.52;;
56637;SDS011;42507;51.982;20.140;2022-11-20T01:06:13;58.42;;;27.37;;
56637;SDS011;42507;51.982;20.140;2022-11-20T01:08:40;54.13;;;27.82;;
56637;SDS011;42507;51.982;20.140;2022-11-20T01:11:11;60.80;;;29.12;;
56637;SDS011;42507;51.982;20.140;2022-11-20T01:13:37;60.38;;;27.93;;
56637;SDS011;42507;51.982;20.140;2022-11-20T01:18:36;58.78;;;27.55;;
56637;SDS011;42507;51.982;20.140;2022-11-20T01:21:05;63.23;;;29.40;;
56637;SDS011;42507;51.982;20.140;2022-11-20T01:23:34;57.73;;;27.70;;
56637;SDS011;42507;51.982;20.140;2022-11-20T01:26:02;52.75;;;25.43;;
56637;SDS011;42507;51.982;20.140;2022-11-20T01:28:30;62.67;;;29.92;;
56637;SDS011;42507;51.982;20.140;2022-11-20T01:30:57;49.33;;;24.32;;
56637;SDS011;42507;51.982;20.140;2022-11-20T01:33:23;58.10;;;28.00;;
56637;SDS011;42507;51.982;20.140;2022-11-20T01:35:50;68.60;;;30.37;;
56637;SDS011;42507;51.982;20.140;2022-11-20T01:38:16;59.33;;;29.05;;
56637;SDS011;42507;51.982;20.140;2022-11-20T01:40:42;59.65;;;28.27;;
56637;SDS011;42507;51.982;20.140;2022-11-20T01:43:12;61.92;;;29.52;;
56637;SDS011;42507;51.982;20.140;2022-11-20T01:45:57;62.80;;;29.07;;
56637;SDS011;42507;51.982;20.140;2022-11-20T01:48:44;66.50;;;28.98;;
56637;SDS011;42507;51.982;20.140;2022-11-20T01:51:32;55.52;;;25.05;;
56637;SDS011;42507;51.982;20.140;2022-11-20T01:54:07;58.17;;;28.40;;
56637;SDS011;42507;51.982;20.140;2022-11-20T01:56:38;57.75;;;26.95;;
56637;SDS011;42507;51.982;20.140;2022-11-20T01:59:07;57.38;;;27.80;;
56637;SDS011;42507;51.982;20.140;2022-11-20T02:01:34;60.58;;;28.83;;
56637;SDS011;42507;51.982;20.140;2022-11-20T02:04:00;63.25;;;28.45;;
56637;SDS011;42507;51.982;20.140;2022-11-20T02:06:31;56.55;;;28.02;;
56637;SDS011;42507;51.982;20.140;2022-11-20T02:11:27;63.45;;;29.00;;
56637;SDS011;42507;51.982;20.140;2022-11-20T02:13:55;61.20;;;29.92;;
56637;SDS011;42507;51.982;20.140;2022-11-20T02:16:23;60.05;;;29.23;;
56637;SDS011;42507;51.982;20.140;2022-11-20T02:18:59;59.83;;;28.62;;
56637;SDS011;42507;51.982;20.140;2022-11-20T02:21:40;61.80;;;28.20;;
56637;SDS011;42507;51.982;20.140;2022-11-20T02:24:27;59.73;;;29.27;;
56637;SDS011;42507;51.982;20.140;2022-11-20T02:26:55;66.00;;;30.40;;
56637;SDS011;42507;51.982;20.140;2022-11-20T02:32:25;65.70;;;30.82;;
56637;SDS011;42507;51.982;20.140;2022-11-20T02:34:53;66.82;;;29.32;;
56637;SDS011;42507;51.982;20.140;2022-11-20T02:37:20;66.10;;;29.90;;
56637;SDS011;42507;51.982;20.140;2022-11-20T02:39:47;61.23;;;28.38;;
56637;SDS011;42507;51.982;20.140;2022-11-20T02:42:15;54.00;;;25.82;;
56637;SDS011;42507;51.982;20.140;2022-11-20T02:44:42;59.08;;;27.75;;
56637;SDS011;42507;51.982;20.140;2022-11-20T02:47:08;61.18;;;28.23;;
56637;SDS011;42507;51.982;20.140;2022-11-20T02:49:34;62.65;;;29.40;;
56637;SDS011;42507;51.982;20.140;2022-11-20T02:52:00;56.70;;;28.15;;
56637;SDS011;42507;51.982;20.140;2022-11-20T02:54:27;52.38;;;22.67;;
56637;SDS011;42507;51.982;20.140;2022-11-20T02:56:53;65.57;;;30.60;;
56637;SDS011;42507;51.982;20.140;2022-11-20T02:59:19;55.28;;;25.95;;
56637;SDS011;42507;51.982;20.140;2022-11-20T03:01:45;64.37;;;29.77;;
56637;SDS011;42507;51.982;20.140;2022-11-20T03:04:11;63.33;;;29.30;;
56637;SDS011;42507;51.982;20.140;2022-11-20T03:06:37;54.83;;;26.80;;
56637;SDS011;42507;51.982;20.140;2022-11-20T03:09:04;58.63;;;28.62;;
56637;SDS011;42507;51.982;20.140;2022-11-20T03:11:30;59.95;;;27.87;;
56637;SDS011;42507;51.982;20.140;2022-11-20T03:13:56;63.17;;;28.95;;
56637;SDS011;42507;51.982;20.140;2022-11-20T03:16:22;55.55;;;26.50;;
56637;SDS011;42507;51.982;20.140;2022-11-20T03:18:49;60.30;;;28.07;;
56637;SDS011;42507;51.982;20.140;2022-11-20T03:21:17;58.75;;;27.48;;
56637;SDS011;42507;51.982;20.140;2022-11-20T03:23:44;63.73;;;30.40;;
56637;SDS011;42507;51.982;20.140;2022-11-20T03:26:11;65.80;;;30.00;;
56637;SDS011;42507;51.982;20.140;2022-11-20T03:28:41;67.27;;;30.95;;
56637;SDS011;42507;51.982;20.140;2022-11-20T03:31:14;68.10;;;31.45;;
56637;SDS011;42507;51.982;20.140;2022-11-20T03:33:42;67.92;;;32.23;;
56637;SDS011;42507;51.982;20.140;2022-11-20T03:36:10;68.70;;;31.82;;
56637;SDS011;42507;51.982;20.140;2022-11-20T03:38:38;63.40;;;29.70;;
56637;SDS011;42507;51.982;20.140;2022-11-20T03:41:09;66.22;;;30.25;;
56637;SDS011;42507;51.982;20.140;2022-11-20T03:43:35;66.33;;;31.75;;
56637;SDS011;42507;51.982;20.140;2022-11-20T03:46:01;62.62;;;30.45;;
56637;SDS011;42507;51.982;20.140;2022-11-20T03:48:29;68.30;;;31.85;;
56637;SDS011;42507;51.982;20.140;2022-11-20T03:51:18;66.87;;;31.07;;
56637;SDS011;42507;51.982;20.140;2022-11-20T03:53:48;61.77;;;29.27;;
56637;SDS011;42507;51.982;20.140;2022-11-20T03:56:16;64.67;;;31.57;;
56637;SDS011;42507;51.982;20.140;2022-11-20T03:58:44;61.90;;;29.48;;
56637;SDS011;42507;51.982;20.140;2022-11-20T04:01:11;62.05;;;29.15;;
56637;SDS011;42507;51.982;20.140;2022-11-20T04:03:42;73.15;;;32.48;;
56637;SDS011;42507;51.982;20.140;2022-11-20T04:06:10;64.97;;;32.03;;
56637;SDS011;42507;51.982;20.140;2022-11-20T04:08:39;63.78;;;31.15;;
56637;SDS011;42507;51.982;20.140;2022-11-20T04:13:41;68.20;;;32.03;;
56637;SDS011;42507;51.982;20.140;2022-11-20T04:16:08;61.90;;;28.45;;
56637;SDS011;42507;51.982;20.140;2022-11-20T04:18:35;62.15;;;28.42;;
56637;SDS011;42507;51.982;20.140;2022-11-20T04:21:02;59.03;;;29.00;;
56637;SDS011;42507;51.982;20.140;2022-11-20T04:23:29;66.05;;;30.65;;
56637;SDS011;42507;51.982;20.140;2022-11-20T04:26:00;65.10;;;29.70;;
56637;SDS011;42507;51.982;20.140;2022-11-20T04:28:33;67.25;;;31.95;;
56637;SDS011;42507;51.982;20.140;2022-11-20T04:31:06;62.25;;;29.12;;
56637;SDS011;42507;51.982;20.140;2022-11-20T04:33:35;66.67;;;30.72;;
56637;SDS011;42507;51.982;20.140;2022-11-20T04:36:07;66.05;;;31.37;;
56637;SDS011;42507;51.982;20.140;2022-11-20T04:38:33;64.87;;;29.92;;
56637;SDS011;42507;51.982;20.140;2022-11-20T04:41:00;72.65;;;32.98;;
56637;SDS011;42507;51.982;20.140;2022-11-20T04:43:28;72.47;;;32.33;;
56637;SDS011;42507;51.982;20.140;2022-11-20T04:45:55;62.98;;;28.42;;
56637;SDS011;42507;51.982;20.140;2022-11-20T04:48:23;64.27;;;29.57;;
56637;SDS011;42507;51.982;20.140;2022-11-20T04:50:50;68.42;;;31.20;;
56637;SDS011;42507;51.982;20.140;2022-11-20T04:53:17;62.27;;;30.23;;
56637;SDS011;42507;51.982;20.140;2022-11-20T04:55:44;57.55;;;28.95;;
56637;SDS011;42507;51.982;20.140;2022-11-20T04:58:10;64.20;;;30.65;;
56637;SDS011;42507;51.982;20.140;2022-11-20T05:00:37;61.50;;;27.80;;
56637;SDS011;42507;51.982;20.140;2022-11-20T05:03:03;67.35;;;30.88;;
56637;SDS011;42507;51.982;20.140;2022-11-20T05:05:30;61.33;;;31.87;;
56637;SDS011;42507;51.982;20.140;2022-11-20T05:07:56;47.40;;;22.93;;
56637;SDS011;42507;51.982;20.140;2022-11-20T05:10:23;64.50;;;29.80;;
56637;SDS011;42507;51.982;20.140;2022-11-20T05:12:51;58.80;;;28.27;;
56637;SDS011;42507;51.982;20.140;2022-11-20T05:15:17;55.05;;;26.52;;
56637;SDS011;42507;51.982;20.140;2022-11-20T05:17:51;62.90;;;29.25;;
56637;SDS011;42507;51.982;20.140;2022-11-20T05:20:16;59.63;;;27.80;;
56637;SDS011;42507;51.982;20.140;2022-11-20T05:22:43;62.58;;;29.50;;
56637;SDS011;42507;51.982;20.140;2022-11-20T05:25:09;68.40;;;31.07;;
56637;SDS011;42507;51.982;20.140;2022-11-20T05:27:36;57.53;;;26.57;;
56637;SDS011;42507;51.982;20.140;2022-11-20T05:30:07;64.27;;;29.70;;
56637;SDS011;42507;51.982;20.140;2022-11-20T05:32:31;56.02;;;25.97;;
56637;SDS011;42507;51.982;20.140;2022-11-20T05:34:57;63.58;;;29.55;;
56637;SDS011;42507;51.982;20.140;2022-11-20T05:37:24;59.48;;;26.80;;
56637;SDS011;42507;51.982;20.140;2022-11-20T05:39:50;55.90;;;26.52;;
56637;SDS011;42507;51.982;20.140;2022-11-20T05:42:16;63.05;;;28.70;;
56637;SDS011;42507;51.982;20.140;2022-11-20T05:45:00;59.00;;;28.92;;
56637;SDS011;42507;51.982;20.140;2022-11-20T05:47:32;59.45;;;27.45;;
56637;SDS011;42507;51.982;20.140;2022-11-20T05:49:58;66.15;;;29.32;;
56637;SDS011;42507;51.982;20.140;2022-11-20T05:52:28;60.45;;;28.25;;
56637;SDS011;42507;51.982;20.140;2022-11-20T05:54:56;55.08;;;27.13;;
56637;SDS011;42507;51.982;20.140;2022-11-20T05:57:22;61.68;;;30.17;;
56637;SDS011;42507;51.982;20.140;2022-11-20T05:59:48;68.45;;;29.90;;
56637;SDS011;42507;51.982;20.140;2022-11-20T06:02:14;70.47;;;34.08;;
56637;SDS011;42507;51.982;20.140;2022-11-20T06:04:42;74.42;;;34.00;;
56637;SDS011;42507;51.982;20.140;2022-11-20T06:07:08;63.48;;;30.23;;
56637;SDS011;42507;51.982;20.140;2022-11-20T06:09:35;69.25;;;32.63;;
56637;SDS011;42507;51.982;20.140;2022-11-20T06:12:01;78.57;;;34.85;;
56637;SDS011;42507;51.982;20.140;2022-11-20T06:14:28;71.80;;;35.60;;
56637;SDS011;42507;51.982;20.140;2022-11-20T06:16:54;74.62;;;34.08;;
56637;SDS011;42507;51.982;20.140;2022-11-20T06:19:21;70.45;;;33.53;;
56637;SDS011;42507;51.982;20.140;2022-11-20T06:21:47;76.30;;;34.63;;
56637;SDS011;42507;51.982;20.140;2022-11-20T06:24:15;76.92;;;35.80;;
56637;SDS011;42507;51.982;20.140;2022-11-20T06:26:41;71.00;;;34.18;;
56637;SDS011;42507;51.982;20.140;2022-11-20T06:29:07;73.92;;;34.53;;
56637;SDS011;42507;51.982;20.140;2022-11-20T06:31:34;72.82;;;35.45;;
56637;SDS011;42507;51.982;20.140;2022-11-20T06:34:07;74.12;;;35.65;;
56637;SDS011;42507;51.982;20.140;2022-11-20T06:36:32;74.20;;;33.98;;
56637;SDS011;42507;51.982;20.140;2022-11-20T06:38:59;69.40;;;33.25;;
56637;SDS011;42507;51.982;20.140;2022-11-20T06:41:25;74.20;;;36.60;;
56637;SDS011;42507;51.982;20.140;2022-11-20T06:43:53;75.05;;;36.08;;
56637;SDS011;42507;51.982;20.140;2022-11-20T06:46:19;78.07;;;36.03;;
56637;SDS011;42507;51.982;20.140;2022-11-20T06:48:46;77.50;;;36.20;;
56637;SDS011;42507;51.982;20.140;2022-11-20T06:51:13;83.17;;;38.38;;
56637;SDS011;42507;51.982;20.140;2022-11-20T06:53:40;89.42;;;40.38;;
56637;SDS011;42507;51.982;20.140;2022-11-20T06:56:06;86.50;;;39.25;;
56637;SDS011;42507;51.982;20.140;2022-11-20T06:58:34;88.05;;;40.88;;
56637;SDS011;42507;51.982;20.140;2022-11-20T07:01:01;88.58;;;39.35;;
56637;SDS011;42507;51.982;20.140;2022-11-20T07:03:32;91.02;;;41.88;;
56637;SDS011;42507;51.982;20.140;2022-11-20T07:05:58;93.52;;;42.33;;
56637;SDS011;42507;51.982;20.140;2022-11-20T07:08:26;80.65;;;37.30;;
56637;SDS011;42507;51.982;20.140;2022-11-20T07:10:56;84.47;;;39.85;;
56637;SDS011;42507;51.982;20.140;2022-11-20T07:15:54;89.72;;;41.48;;
56637;SDS011;42507;51.982;20.140;2022-11-20T07:18:20;84.60;;;39.40;;
56637;SDS011;42507;51.982;20.140;2022-11-20T07:20:46;76.35;;;37.73;;
56637;SDS011;42507;51.982;20.140;2022-11-20T07:23:13;78.25;;;35.80;;
56637;SDS011;42507;51.982;20.140;2022-11-20T07:25:39;77.30;;;34.30;;
56637;SDS011;42507;51.982;20.140;2022-11-20T07:28:05;88.60;;;39.95;;
56637;SDS011;42507;51.982;20.140;2022-11-20T07:30:32;68.75;;;31.57;;
56637;SDS011;42507;51.982;20.140;2022-11-20T07:32:58;86.02;;;42.03;;
56637;SDS011;42507;51.982;20.140;2022-11-20T07:35:25;81.47;;;39.33;;
56637;SDS011;42507;51.982;20.140;2022-11-20T07:37:51;83.05;;;39.80;;
56637;SDS011;42507;51.982;20.140;2022-11-20T07:40:18;90.87;;;41.77;;
56637;SDS011;42507;51.982;20.140;2022-11-20T07:42:53;102.20;;;46.98;;
56637;SDS011;42507;51.982;20.140;2022-11-20T07:45:17;80.95;;;38.80;;
56637;SDS011;42507;51.982;20.140;2022-11-20T07:47:48;86.10;;;39.00;;
56637;SDS011;42507;51.982;20.140;2022-11-20T07:50:14;81.10;;;36.95;;
56637;SDS011;42507;51.982;20.140;2022-11-20T07:52:41;84.22;;;39.05;;
56637;SDS011;42507;51.982;20.140;2022-11-20T07:55:08;81.95;;;39.58;;
56637;SDS011;42507;51.982;20.140;2022-11-20T07:57:35;85.67;;;39.45;;
56637;SDS011;42507;51.982;20.140;2022-11-20T08:00:02;83.20;;;38.28;;
56637;SDS011;42507;51.982;20.140;2022-11-20T08:02:32;81.35;;;40.03;;
56637;SDS011;42507;51.982;20.140;2022-11-20T08:04:59;83.90;;;38.67;;
56637;SDS011;42507;51.982;20.140;2022-11-20T08:07:25;83.40;;;39.27;;
56637;SDS011;42507;51.982;20.140;2022-11-20T08:09:52;90.57;;;40.05;;
56637;SDS011;42507;51.982;20.140;2022-11-20T08:12:19;84.37;;;38.98;;
56637;SDS011;42507;51.982;20.140;2022-11-20T08:15:05;86.05;;;38.90;;
56637;SDS011;42507;51.982;20.140;2022-11-20T08:17:32;86.12;;;39.03;;
56637;SDS011;42507;51.982;20.140;2022-11-20T08:19:59;80.80;;;38.60;;
56637;SDS011;42507;51.982;20.140;2022-11-20T08:22:25;77.67;;;37.13;;
56637;SDS011;42507;51.982;20.140;2022-11-20T08:24:51;73.37;;;36.40;;
56637;SDS011;42507;51.982;20.140;2022-11-20T08:27:17;78.75;;;37.55;;
56637;SDS011;42507;51.982;20.140;2022-11-20T08:29:44;85.17;;;38.65;;
56637;SDS011;42507;51.982;20.140;2022-11-20T08:32:10;80.55;;;37.30;;
56637;SDS011;42507;51.982;20.140;2022-11-20T08:34:38;83.50;;;39.23;;
56637;SDS011;42507;51.982;20.140;2022-11-20T08:37:04;89.80;;;40.08;;
56637;SDS011;42507;51.982;20.140;2022-11-20T08:39:30;82.57;;;37.70;;
56637;SDS011;42507;51.982;20.140;2022-11-20T08:41:56;84.35;;;38.15;;
56637;SDS011;42507;51.982;20.140;2022-11-20T08:44:23;75.28;;;36.10;;
56637;SDS011;42507;51.982;20.140;2022-11-20T08:46:49;80.60;;;37.08;;
56637;SDS011;42507;51.982;20.140;2022-11-20T08:49:15;70.52;;;35.23;;
56637;SDS011;42507;51.982;20.140;2022-11-20T08:51:42;73.65;;;34.15;;
56637;SDS011;42507;51.982;20.140;2022-11-20T08:54:08;69.50;;;34.70;;
56637;SDS011;42507;51.982;20.140;2022-11-20T08:56:35;70.70;;;32.75;;
56637;SDS011;42507;51.982;20.140;2022-11-20T08:59:01;68.95;;;33.50;;
56637;SDS011;42507;51.982;20.140;2022-11-20T09:01:27;70.65;;;33.53;;
56637;SDS011;42507;51.982;20.140;2022-11-20T09:03:55;65.55;;;32.03;;
56637;SDS011;42507;51.982;20.140;2022-11-20T09:06:25;70.55;;;31.93;;
56637;SDS011;42507;51.982;20.140;2022-11-20T09:08:52;61.90;;;28.55;;
56637;SDS011;42507;51.982;20.140;2022-11-20T09:11:19;65.87;;;30.75;;
56637;SDS011;42507;51.982;20.140;2022-11-20T09:13:45;65.15;;;31.15;;
56637;SDS011;42507;51.982;20.140;2022-11-20T09:16:12;64.40;;;32.00;;
56637;SDS011;42507;51.982;20.140;2022-11-20T09:18:39;67.62;;;32.55;;
56637;SDS011;42507;51.982;20.140;2022-11-20T09:21:06;62.98;;;29.63;;
56637;SDS011;42507;51.982;20.140;2022-11-20T09:23:38;53.38;;;25.90;;
56637;SDS011;42507;51.982;20.140;2022-11-20T09:26:06;56.63;;;28.35;;
56637;SDS011;42507;51.982;20.140;2022-11-20T09:28:35;52.95;;;26.60;;
56637;SDS011;42507;51.982;20.140;2022-11-20T09:31:05;49.58;;;24.80;;
56637;SDS011;42507;51.982;20.140;2022-11-20T09:33:34;57.85;;;29.35;;
56637;SDS011;42507;51.982;20.140;2022-11-20T09:36:01;58.60;;;28.73;;
56637;SDS011;42507;51.982;20.140;2022-11-20T09:38:28;52.45;;;26.97;;
56637;SDS011;42507;51.982;20.140;2022-11-20T09:41:01;50.88;;;25.77;;
56637;SDS011;42507;51.982;20.140;2022-11-20T09:43:45;53.45;;;26.25;;
56637;SDS011;42507;51.982;20.140;2022-11-20T09:46:17;50.45;;;24.52;;
56637;SDS011;42507;51.982;20.140;2022-11-20T09:54:35;55.08;;;26.50;;
56637;SDS011;42507;51.982;20.140;2022-11-20T09:57:11;53.55;;;26.85;;
56637;SDS011;42507;51.982;20.140;2022-11-20T09:59:52;55.70;;;28.00;;
56637;SDS011;42507;51.982;20.140;2022-11-20T10:05:18;47.40;;;24.72;;
56637;SDS011;42507;51.982;20.140;2022-11-20T10:10:38;51.02;;;25.65;;
56637;SDS011;42507;51.982;20.140;2022-11-20T10:13:34;51.50;;;26.48;;
56637;SDS011;42507;51.982;20.140;2022-11-20T10:19:18;53.55;;;28.00;;
56637;SDS011;42507;51.982;20.140;2022-11-20T10:28:02;48.92;;;25.37;;
56637;SDS011;42507;51.982;20.140;2022-11-20T10:30:31;49.45;;;25.48;;
56637;SDS011;42507;51.982;20.140;2022-11-20T10:33:13;52.25;;;26.68;;
56637;SDS011;42507;51.982;20.140;2022-11-20T10:38:54;49.00;;;26.30;;
56637;SDS011;42507;51.982;20.140;2022-11-20T10:41:44;45.83;;;25.85;;
56637;SDS011;42507;51.982;20.140;2022-11-20T10:44:17;51.37;;;26.35;;
56637;SDS011;42507;51.982;20.140;2022-11-20T10:47:05;47.55;;;25.35;;
56637;SDS011;42507;51.982;20.140;2022-11-20T10:49:42;45.10;;;25.23;;
56637;SDS011;42507;51.982;20.140;2022-11-20T10:54:50;47.58;;;26.48;;
56637;SDS011;42507;51.982;20.140;2022-11-20T11:00:35;46.50;;;25.68;;
56637;SDS011;42507;51.982;20.140;2022-11-20T11:03:01;45.52;;;26.35;;
56637;SDS011;42507;51.982;20.140;2022-11-20T11:05:43;47.60;;;26.60;;
56637;SDS011;42507;51.982;20.140;2022-11-20T11:08:16;45.05;;;25.70;;
56637;SDS011;42507;51.982;20.140;2022-11-20T11:10:54;51.95;;;28.67;;
56637;SDS011;42507;51.982;20.140;2022-11-20T11:13:28;51.08;;;28.02;;
56637;SDS011;42507;51.982;20.140;2022-11-20T11:15:56;51.55;;;27.55;;
56637;SDS011;42507;51.982;20.140;2022-11-20T11:18:27;48.83;;;28.25;;
56637;SDS011;42507;51.982;20.140;2022-11-20T11:20:56;40.50;;;24.37;;
56637;SDS011;42507;51.982;20.140;2022-11-20T11:23:34;41.35;;;24.65;;
56637;SDS011;42507;51.982;20.140;2022-11-20T11:26:18;41.60;;;23.10;;
56637;SDS011;42507;51.982;20.140;2022-11-20T11:28:58;41.87;;;24.73;;
56637;SDS011;42507;51.982;20.140;2022-11-20T11:31:28;38.67;;;22.77;;
56637;SDS011;42507;51.982;20.140;2022-11-20T11:36:39;44.88;;;23.90;;
56637;SDS011;42507;51.982;20.140;2022-11-20T11:39:06;42.10;;;24.05;;
56637;SDS011;42507;51.982;20.140;2022-11-20T11:41:44;39.85;;;24.00;;
56637;SDS011;42507;51.982;20.140;2022-11-20T11:47:08;36.10;;;21.57;;
56637;SDS011;42507;51.982;20.140;2022-11-20T11:49:39;38.75;;;22.67;;
56637;SDS011;42507;51.982;20.140;2022-11-20T11:52:13;38.78;;;23.55;;
56637;SDS011;42507;51.982;20.140;2022-11-20T12:00:21;35.73;;;22.62;;
56637;SDS011;42507;51.982;20.140;2022-11-20T12:05:26;37.15;;;21.95;;
56637;SDS011;42507;51.982;20.140;2022-11-20T12:08:16;39.33;;;22.58;;
56637;SDS011;42507;51.982;20.140;2022-11-20T12:11:14;33.18;;;20.23;;
56637;SDS011;42507;51.982;20.140;2022-11-20T12:14:02;39.67;;;21.57;;
56637;SDS011;42507;51.982;20.140;2022-11-20T12:16:49;35.03;;;21.85;;
56637;SDS011;42507;51.982;20.140;2022-11-20T12:19:16;38.15;;;22.67;;
56637;SDS011;42507;51.982;20.140;2022-11-20T12:38:31;43.85;;;22.80;;
56637;SDS011;42507;51.982;20.140;2022-11-20T12:41:02;40.38;;;21.10;;
56637;SDS011;42507;51.982;20.140;2022-11-20T12:43:51;40.85;;;21.60;;
56637;SDS011;42507;51.982;20.140;2022-11-20T12:46:45;40.88;;;22.02;;
56637;SDS011;42507;51.982;20.140;2022-11-20T12:54:59;43.33;;;24.25;;
56637;SDS011;42507;51.982;20.140;2022-11-20T12:57:44;43.42;;;23.50;;
56637;SDS011;42507;51.982;20.140;2022-11-20T13:00:17;45.83;;;25.10;;
56637;SDS011;42507;51.982;20.140;2022-11-20T13:08:30;45.43;;;24.25;;
56637;SDS011;42507;51.982;20.140;2022-11-20T13:16:53;56.23;;;29.20;;
56637;SDS011;42507;51.982;20.140;2022-11-20T13:19:55;49.10;;;26.95;;
56637;SDS011;42507;51.982;20.140;2022-11-20T13:22:25;49.08;;;26.73;;
56637;SDS011;42507;51.982;20.140;2022-11-20T13:24:57;47.27;;;24.85;;
56637;SDS011;42507;51.982;20.140;2022-11-20T13:27:23;50.48;;;27.07;;
56637;SDS011;42507;51.982;20.140;2022-11-20T13:30:00;55.03;;;30.55;;
56637;SDS011;42507;51.982;20.140;2022-11-20T13:32:31;50.75;;;26.23;;
56637;SDS011;42507;51.982;20.140;2022-11-20T13:34:59;50.17;;;26.45;;
56637;SDS011;42507;51.982;20.140;2022-11-20T13:37:32;50.85;;;25.35;;
56637;SDS011;42507;51.982;20.140;2022-11-20T13:40:20;47.03;;;24.82;;
56637;SDS011;42507;51.982;20.140;2022-11-20T13:45:23;74.47;;;35.03;;
56637;SDS011;42507;51.982;20.140;2022-11-20T13:47:52;62.38;;;28.98;;
56637;SDS011;42507;51.982;20.140;2022-11-20T13:50:21;66.47;;;31.82;;
56637;SDS011;42507;51.982;20.140;2022-11-20T13:53:14;57.70;;;28.00;;
56637;SDS011;42507;51.982;20.140;2022-11-20T13:59:40;45.38;;;22.95;;
56637;SDS011;42507;51.982;20.140;2022-11-20T14:02:37;47.93;;;23.90;;
56637;SDS011;42507;51.982;20.140;2022-11-20T14:05:03;44.10;;;22.07;;
56637;SDS011;42507;51.982;20.140;2022-11-20T14:07:38;41.95;;;22.70;;
56637;SDS011;42507;51.982;20.140;2022-11-20T14:10:18;41.25;;;20.23;;
56637;SDS011;42507;51.982;20.140;2022-11-20T14:12:53;47.15;;;22.62;;
56637;SDS011;42507;51.982;20.140;2022-11-20T14:15:27;49.77;;;23.02;;
56637;SDS011;42507;51.982;20.140;2022-11-20T14:17:56;41.40;;;20.55;;
56637;SDS011;42507;51.982;20.140;2022-11-20T14:20:24;38.13;;;19.40;;
56637;SDS011;42507;51.982;20.140;2022-11-20T14:22:54;42.27;;;21.48;;
56637;SDS011;42507;51.982;20.140;2022-11-20T14:25:24;45.78;;;21.97;;
56637;SDS011;42507;51.982;20.140;2022-11-20T14:28:00;43.23;;;21.12;;
56637;SDS011;42507;51.982;20.140;2022-11-20T14:33:10;43.23;;;21.80;;
56637;SDS011;42507;51.982;20.140;2022-11-20T14:35:48;48.23;;;24.12;;
56637;SDS011;42507;51.982;20.140;2022-11-20T14:38:25;43.00;;;21.50;;
56637;SDS011;42507;51.982;20.140;2022-11-20T14:40:53;46.77;;;23.62;;
56637;SDS011;42507;51.982;20.140;2022-11-20T14:45:54;48.17;;;25.92;;
56637;SDS011;42507;51.982;20.140;2022-11-20T14:48:41;43.33;;;23.57;;
56637;SDS011;42507;51.982;20.140;2022-11-20T14:54:19;49.03;;;24.70;;
56637;SDS011;42507;51.982;20.140;2022-11-20T14:56:55;43.30;;;21.93;;
56637;SDS011;42507;51.982;20.140;2022-11-20T14:59:26;47.30;;;23.77;;
56637;SDS011;42507;51.982;20.140;2022-11-20T15:01:56;48.42;;;23.42;;
56637;SDS011;42507;51.982;20.140;2022-11-20T15:04:25;47.60;;;25.85;;
56637;SDS011;42507;51.982;20.140;2022-11-20T15:06:54;44.70;;;22.98;;
56637;SDS011;42507;51.982;20.140;2022-11-20T15:09:22;50.65;;;24.98;;
56637;SDS011;42507;51.982;20.140;2022-11-20T15:11:55;49.42;;;24.87;;
56637;SDS011;42507;51.982;20.140;2022-11-20T15:14:24;51.90;;;25.12;;
56637;SDS011;42507;51.982;20.140;2022-11-20T15:16:52;47.20;;;24.15;;
56637;SDS011;42507;51.982;20.140;2022-11-20T15:19:20;59.98;;;27.22;;
56637;SDS011;42507;51.982;20.140;2022-11-20T15:21:48;51.02;;;25.35;;
56637;SDS011;42507;51.982;20.140;2022-11-20T15:24:15;51.33;;;25.25;;
56637;SDS011;42507;51.982;20.140;2022-11-20T15:26:41;48.38;;;25.20;;
56637;SDS011;42507;51.982;20.140;2022-11-20T15:29:09;53.17;;;26.35;;
56637;SDS011;42507;51.982;20.140;2022-11-20T15:31:38;46.18;;;24.30;;
56637;SDS011;42507;51.982;20.140;2022-11-20T15:34:12;50.10;;;24.75;;
56637;SDS011;42507;51.982;20.140;2022-11-20T15:36:41;57.58;;;29.10;;
56637;SDS011;42507;51.982;20.140;2022-11-20T15:39:08;56.13;;;28.47;;
56637;SDS011;42507;51.982;20.140;2022-11-20T15:41:35;58.23;;;29.30;;
56637;SDS011;42507;51.982;20.140;2022-11-20T15:44:02;60.45;;;30.48;;
56637;SDS011;42507;51.982;20.140;2022-11-20T15:46:31;61.85;;;31.37;;
56637;SDS011;42507;51.982;20.140;2022-11-20T15:49:01;66.95;;;33.48;;
56637;SDS011;42507;51.982;20.140;2022-11-20T15:54:03;59.80;;;30.52;;
56637;SDS011;42507;51.982;20.140;2022-11-20T15:56:38;43.25;;;22.48;;
56637;SDS011;42507;51.982;20.140;2022-11-20T15:59:05;63.28;;;32.08;;
56637;SDS011;42507;51.982;20.140;2022-11-20T16:01:31;57.27;;;29.23;;
56637;SDS011;42507;51.982;20.140;2022-11-20T16:03:58;63.02;;;31.42;;
56637;SDS011;42507;51.982;20.140;2022-11-20T16:06:26;60.78;;;30.57;;
56637;SDS011;42507;51.982;20.140;2022-11-20T16:08:53;54.18;;;27.48;;
56637;SDS011;42507;51.982;20.140;2022-11-20T16:11:19;51.37;;;27.00;;
56637;SDS011;42507;51.982;20.140;2022-11-20T16:13:46;67.35;;;32.45;;